sensor_id;sensor_type;location;lat;lon;timestamp;temperature;humidity
66057;DHT22;52842;52.666;5.202;2023-02-01T00:01:29;21.50;46.80
66057;DHT22;52842;52.666;5.202;2023-02-01T00:03:55;21.50;46.90
66057;DHT22;52842;52.666;5.202;2023-02-01T00:06:24;21.50;46.80
66057;DHT22;52842;52.666;5.202;2023-02-01T00:08:52;21.40;46.70
66057;DHT22;52842;52.666;5.202;2023-02-01T00:11:18;21.50;46.70
66057;DHT22;52842;52.666;5.202;2023-02-01T00:13:45;21.50;46.80
66057;DHT22;52842;52.666;5.202;2023-02-01T00:16:12;21.50;46.70
66057;DHT22;52842;52.666;5.202;2023-02-01T00:18:41;21.50;46.80
66057;DHT22;52842;52.666;5.202;2023-02-01T00:21:08;21.40;46.60
66057;DHT22;52842;52.666;5.202;2023-02-01T00:23:37;21.40;46.70
66057;DHT22;52842;52.666;5.202;2023-02-01T00:26:05;21.40;46.60
66057;DHT22;52842;52.666;5.202;2023-02-01T00:28:32;21.50;46.60
66057;DHT22;52842;52.666;5.202;2023-02-01T00:30:59;21.50;46.60
66057;DHT22;52842;52.666;5.202;2023-02-01T00:33:26;21.50;46.60
66057;DHT22;52842;52.666;5.202;2023-02-01T00:35:55;21.50;46.60
66057;DHT22;52842;52.666;5.202;2023-02-01T00:38:22;21.50;46.60
66057;DHT22;52842;52.666;5.202;2023-02-01T00:40:50;21.40;46.40
66057;DHT22;52842;52.666;5.202;2023-02-01T00:43:16;21.40;46.50
66057;DHT22;52842;52.666;5.202;2023-02-01T00:45:44;21.40;46.50
66057;DHT22;52842;52.666;5.202;2023-02-01T00:48:11;21.40;46.50
66057;DHT22;52842;52.666;5.202;2023-02-01T00:50:40;21.50;46.50
66057;DHT22;52842;52.666;5.202;2023-02-01T00:53:08;21.40;46.30
66057;DHT22;52842;52.666;5.202;2023-02-01T00:55:34;21.40;46.40
66057;DHT22;52842;52.666;5.202;2023-02-01T00:58:02;21.40;46.50
66057;DHT22;52842;52.666;5.202;2023-02-01T01:00:31;21.40;46.30
66057;DHT22;52842;52.666;5.202;2023-02-01T01:02:58;21.50;46.40
66057;DHT22;52842;52.666;5.202;2023-02-01T01:05:24;21.40;46.30
66057;DHT22;52842;52.666;5.202;2023-02-01T01:07:52;21.40;46.40
66057;DHT22;52842;52.666;5.202;2023-02-01T01:10:19;21.40;46.40
66057;DHT22;52842;52.666;5.202;2023-02-01T01:12:46;21.40;46.90
66057;DHT22;52842;52.666;5.202;2023-02-01T01:15:14;21.50;46.40
66057;DHT22;52842;52.666;5.202;2023-02-01T01:17:41;21.50;46.40
66057;DHT22;52842;52.666;5.202;2023-02-01T01:20:08;21.40;46.30
66057;DHT22;52842;52.666;5.202;2023-02-01T01:22:35;21.40;46.30
66057;DHT22;52842;52.666;5.202;2023-02-01T01:25:01;21.40;46.10
66057;DHT22;52842;52.666;5.202;2023-02-01T01:27:28;21.50;46.20
66057;DHT22;52842;52.666;5.202;2023-02-01T01:29:55;21.50;46.20
66057;DHT22;52842;52.666;5.202;2023-02-01T01:32:23;21.40;46.30
66057;DHT22;52842;52.666;5.202;2023-02-01T01:34:49;21.40;46.10
66057;DHT22;52842;52.666;5.202;2023-02-01T01:37:16;21.40;46.10
66057;DHT22;52842;52.666;5.202;2023-02-01T01:39:43;21.40;46.10
66057;DHT22;52842;52.666;5.202;2023-02-01T01:42:10;21.40;46.10
66057;DHT22;52842;52.666;5.202;2023-02-01T01:44:56;21.40;46.10
66057;DHT22;52842;52.666;5.202;2023-02-01T01:47:24;21.40;46.10
66057;DHT22;52842;52.666;5.202;2023-02-01T01:49:51;21.40;46.10
66057;DHT22;52842;52.666;5.202;2023-02-01T01:52:17;21.40;46.10
66057;DHT22;52842;52.666;5.202;2023-02-01T01:54:45;21.40;46.10
66057;DHT22;52842;52.666;5.202;2023-02-01T01:57:14;21.40;46.10
66057;DHT22;52842;52.666;5.202;2023-02-01T01:59:45;21.40;46.10
66057;DHT22;52842;52.666;5.202;2023-02-01T02:02:13;21.30;46.10
66057;DHT22;52842;52.666;5.202;2023-02-01T02:04:41;21.30;46.00
66057;DHT22;52842;52.666;5.202;2023-02-01T02:07:08;21.40;46.00
66057;DHT22;52842;52.666;5.202;2023-02-01T02:09:36;21.30;45.90
66057;DHT22;52842;52.666;5.202;2023-02-01T02:12:03;21.30;45.90
66057;DHT22;52842;52.666;5.202;2023-02-01T02:14:30;21.40;46.00
66057;DHT22;52842;52.666;5.202;2023-02-01T02:17:00;21.30;45.90
66057;DHT22;52842;52.666;5.202;2023-02-01T02:22:32;21.30;45.90
66057;DHT22;52842;52.666;5.202;2023-02-01T02:27:46;21.40;46.00
66057;DHT22;52842;52.666;5.202;2023-02-01T02:30:39;21.30;45.80
66057;DHT22;52842;52.666;5.202;2023-02-01T02:35:56;21.40;45.80
66057;DHT22;52842;52.666;5.202;2023-02-01T02:38:27;21.40;45.90
66057;DHT22;52842;52.666;5.202;2023-02-01T02:40:58;21.30;45.80
66057;DHT22;52842;52.666;5.202;2023-02-01T02:43:29;21.30;45.90
66057;DHT22;52842;52.666;5.202;2023-02-01T02:46:18;21.30;45.90
66057;DHT22;52842;52.666;5.202;2023-02-01T02:49:07;21.30;45.80
66057;DHT22;52842;52.666;5.202;2023-02-01T02:51:38;21.30;45.80
66057;DHT22;52842;52.666;5.202;2023-02-01T02:54:25;21.30;45.90
66057;DHT22;52842;52.666;5.202;2023-02-01T02:57:12;21.30;45.80
66057;DHT22;52842;52.666;5.202;2023-02-01T02:59:57;21.30;45.90
66057;DHT22;52842;52.666;5.202;2023-02-01T03:02:42;21.30;45.80
66057;DHT22;52842;52.666;5.202;2023-02-01T03:05:31;21.30;45.80
66057;DHT22;52842;52.666;5.202;2023-02-01T03:08:03;21.30;45.80
66057;DHT22;52842;52.666;5.202;2023-02-01T03:10:33;21.30;45.80
66057;DHT22;52842;52.666;5.202;2023-02-01T03:13:01;21.30;45.80
66057;DHT22;52842;52.666;5.202;2023-02-01T03:15:32;21.30;45.80
66057;DHT22;52842;52.666;5.202;2023-02-01T03:18:02;21.40;45.70
66057;DHT22;52842;52.666;5.202;2023-02-01T03:20:31;21.30;45.70
66057;DHT22;52842;52.666;5.202;2023-02-01T03:22:58;21.30;45.70
66057;DHT22;52842;52.666;5.202;2023-02-01T03:25:27;21.30;45.60
66057;DHT22;52842;52.666;5.202;2023-02-01T03:27:56;21.30;45.70
66057;DHT22;52842;52.666;5.202;2023-02-01T03:30:25;21.30;45.60
66057;DHT22;52842;52.666;5.202;2023-02-01T03:32:54;21.40;45.60
66057;DHT22;52842;52.666;5.202;2023-02-01T03:35:29;21.40;45.60
66057;DHT22;52842;52.666;5.202;2023-02-01T03:38:00;21.30;45.50
66057;DHT22;52842;52.666;5.202;2023-02-01T03:40:29;21.40;45.50
66057;DHT22;52842;52.666;5.202;2023-02-01T03:42:59;21.40;46.10
66057;DHT22;52842;52.666;5.202;2023-02-01T03:45:27;21.30;45.60
66057;DHT22;52842;52.666;5.202;2023-02-01T03:47:55;21.30;45.60
66057;DHT22;52842;52.666;5.202;2023-02-01T03:50:23;21.30;45.50
66057;DHT22;52842;52.666;5.202;2023-02-01T03:52:52;21.30;45.50
66057;DHT22;52842;52.666;5.202;2023-02-01T03:55:20;21.30;45.50
66057;DHT22;52842;52.666;5.202;2023-02-01T03:57:50;21.30;45.50
66057;DHT22;52842;52.666;5.202;2023-02-01T04:00:20;21.30;45.50
66057;DHT22;52842;52.666;5.202;2023-02-01T04:02:48;21.30;45.60
66057;DHT22;52842;52.666;5.202;2023-02-01T04:05:15;21.30;45.50
66057;DHT22;52842;52.666;5.202;2023-02-01T04:07:42;21.30;45.50
66057;DHT22;52842;52.666;5.202;2023-02-01T04:10:09;21.30;45.40
66057;DHT22;52842;52.666;5.202;2023-02-01T04:12:36;21.30;45.30
66057;DHT22;52842;52.666;5.202;2023-02-01T04:15:05;21.30;45.30
66057;DHT22;52842;52.666;5.202;2023-02-01T04:17:31;21.30;45.30
66057;DHT22;52842;52.666;5.202;2023-02-01T04:19:58;21.40;45.30
66057;DHT22;52842;52.666;5.202;2023-02-01T04:22:25;21.40;45.20
66057;DHT22;52842;52.666;5.202;2023-02-01T04:24:51;21.40;45.20
66057;DHT22;52842;52.666;5.202;2023-02-01T04:27:18;21.30;45.20
66057;DHT22;52842;52.666;5.202;2023-02-01T04:29:45;21.40;45.10
66057;DHT22;52842;52.666;5.202;2023-02-01T04:32:13;21.40;45.10
66057;DHT22;52842;52.666;5.202;2023-02-01T04:34:41;21.30;45.30
66057;DHT22;52842;52.666;5.202;2023-02-01T04:37:07;21.30;45.30
66057;DHT22;52842;52.666;5.202;2023-02-01T04:39:34;21.40;45.30
66057;DHT22;52842;52.666;5.202;2023-02-01T04:42:01;21.40;45.40
66057;DHT22;52842;52.666;5.202;2023-02-01T04:44:28;21.40;45.50
66057;DHT22;52842;52.666;5.202;2023-02-01T04:46:54;21.40;45.70
66057;DHT22;52842;52.666;5.202;2023-02-01T04:49:22;21.40;45.80
66057;DHT22;52842;52.666;5.202;2023-02-01T04:51:50;21.40;45.90
66057;DHT22;52842;52.666;5.202;2023-02-01T04:54:17;21.40;46.00
66057;DHT22;52842;52.666;5.202;2023-02-01T04:56:44;21.40;46.00
66057;DHT22;52842;52.666;5.202;2023-02-01T04:59:11;21.40;46.10
66057;DHT22;52842;52.666;5.202;2023-02-01T05:01:38;21.40;46.10
66057;DHT22;52842;52.666;5.202;2023-02-01T05:04:04;21.40;46.20
66057;DHT22;52842;52.666;5.202;2023-02-01T05:06:32;21.40;46.30
66057;DHT22;52842;52.666;5.202;2023-02-01T05:08:59;21.40;46.40
66057;DHT22;52842;52.666;5.202;2023-02-01T05:11:26;21.40;46.50
66057;DHT22;52842;52.666;5.202;2023-02-01T05:14:10;21.40;46.50
66057;DHT22;52842;52.666;5.202;2023-02-01T05:16:37;21.50;46.50
66057;DHT22;52842;52.666;5.202;2023-02-01T05:19:04;21.50;46.50
66057;DHT22;52842;52.666;5.202;2023-02-01T05:21:30;21.50;46.50
66057;DHT22;52842;52.666;5.202;2023-02-01T05:23:58;21.50;46.70
66057;DHT22;52842;52.666;5.202;2023-02-01T05:26:38;21.30;47.00
66057;DHT22;52842;52.666;5.202;2023-02-01T05:29:05;21.20;47.40
66057;DHT22;52842;52.666;5.202;2023-02-01T05:31:32;21.00;47.80
66057;DHT22;52842;52.666;5.202;2023-02-01T05:33:59;20.90;48.10
66057;DHT22;52842;52.666;5.202;2023-02-01T05:36:25;20.80;48.40
66057;DHT22;52842;52.666;5.202;2023-02-01T05:38:52;20.70;48.60
66057;DHT22;52842;52.666;5.202;2023-02-01T05:41:20;20.70;48.80
66057;DHT22;52842;52.666;5.202;2023-02-01T05:43:47;20.70;49.00
66057;DHT22;52842;52.666;5.202;2023-02-01T05:46:14;20.60;49.00
66057;DHT22;52842;52.666;5.202;2023-02-01T05:48:41;20.60;49.10
66057;DHT22;52842;52.666;5.202;2023-02-01T05:51:08;20.60;49.20
66057;DHT22;52842;52.666;5.202;2023-02-01T05:53:35;20.50;49.30
66057;DHT22;52842;52.666;5.202;2023-02-01T05:56:02;20.50;49.30
66057;DHT22;52842;52.666;5.202;2023-02-01T05:58:30;20.50;49.30
66057;DHT22;52842;52.666;5.202;2023-02-01T06:00:58;20.50;49.40
66057;DHT22;52842;52.666;5.202;2023-02-01T06:03:25;20.50;49.40
66057;DHT22;52842;52.666;5.202;2023-02-01T06:05:51;20.50;49.40
66057;DHT22;52842;52.666;5.202;2023-02-01T06:08:18;20.50;49.40
66057;DHT22;52842;52.666;5.202;2023-02-01T06:10:45;20.50;49.40
66057;DHT22;52842;52.666;5.202;2023-02-01T06:13:11;20.50;49.30
66057;DHT22;52842;52.666;5.202;2023-02-01T06:15:39;20.50;49.30
66057;DHT22;52842;52.666;5.202;2023-02-01T06:18:07;20.50;49.30
66057;DHT22;52842;52.666;5.202;2023-02-01T06:20:34;20.50;49.20
66057;DHT22;52842;52.666;5.202;2023-02-01T06:23:01;20.50;49.20
66057;DHT22;52842;52.666;5.202;2023-02-01T06:25:27;20.50;49.20
66057;DHT22;52842;52.666;5.202;2023-02-01T06:27:54;20.50;49.20
66057;DHT22;52842;52.666;5.202;2023-02-01T06:30:20;20.50;49.30
66057;DHT22;52842;52.666;5.202;2023-02-01T06:32:51;20.50;49.30
66057;DHT22;52842;52.666;5.202;2023-02-01T06:35:19;20.60;49.20
66057;DHT22;52842;52.666;5.202;2023-02-01T06:37:45;20.60;49.20
66057;DHT22;52842;52.666;5.202;2023-02-01T06:40:12;20.60;49.20
66057;DHT22;52842;52.666;5.202;2023-02-01T06:42:39;20.50;49.20
66057;DHT22;52842;52.666;5.202;2023-02-01T06:45:06;20.60;49.30
66057;DHT22;52842;52.666;5.202;2023-02-01T06:47:33;20.50;49.10
66057;DHT22;52842;52.666;5.202;2023-02-01T06:50:01;20.50;49.80
66057;DHT22;52842;52.666;5.202;2023-02-01T06:52:28;20.50;49.60
66057;DHT22;52842;52.666;5.202;2023-02-01T06:54:54;20.50;49.30
66057;DHT22;52842;52.666;5.202;2023-02-01T06:57:21;20.50;49.30
66057;DHT22;52842;52.666;5.202;2023-02-01T06:59:48;20.50;49.30
66057;DHT22;52842;52.666;5.202;2023-02-01T07:02:14;20.50;49.20
66057;DHT22;52842;52.666;5.202;2023-02-01T07:04:41;20.50;49.30
66057;DHT22;52842;52.666;5.202;2023-02-01T07:07:09;20.50;49.20
66057;DHT22;52842;52.666;5.202;2023-02-01T07:09:37;20.60;49.20
66057;DHT22;52842;52.666;5.202;2023-02-01T07:12:04;20.60;49.20
66057;DHT22;52842;52.666;5.202;2023-02-01T07:14:31;20.60;49.20
66057;DHT22;52842;52.666;5.202;2023-02-01T07:16:57;20.50;49.10
66057;DHT22;52842;52.666;5.202;2023-02-01T07:19:24;20.50;49.20
66057;DHT22;52842;52.666;5.202;2023-02-01T07:21:50;20.50;49.10
66057;DHT22;52842;52.666;5.202;2023-02-01T07:24:18;20.50;49.20
66057;DHT22;52842;52.666;5.202;2023-02-01T07:26:45;20.50;49.10
66057;DHT22;52842;52.666;5.202;2023-02-01T07:29:13;20.50;49.10
66057;DHT22;52842;52.666;5.202;2023-02-01T07:31:39;20.50;49.20
66057;DHT22;52842;52.666;5.202;2023-02-01T07:34:06;20.50;49.10
66057;DHT22;52842;52.666;5.202;2023-02-01T07:36:33;20.50;49.10
66057;DHT22;52842;52.666;5.202;2023-02-01T07:39:01;20.50;49.20
66057;DHT22;52842;52.666;5.202;2023-02-01T07:41:29;20.50;49.10
66057;DHT22;52842;52.666;5.202;2023-02-01T07:43:56;20.50;49.10
66057;DHT22;52842;52.666;5.202;2023-02-01T07:46:23;20.50;49.20
66057;DHT22;52842;52.666;5.202;2023-02-01T07:48:49;20.50;49.20
66057;DHT22;52842;52.666;5.202;2023-02-01T07:51:16;20.50;49.30
66057;DHT22;52842;52.666;5.202;2023-02-01T07:53:43;20.50;49.30
66057;DHT22;52842;52.666;5.202;2023-02-01T07:56:10;20.50;49.30
66057;DHT22;52842;52.666;5.202;2023-02-01T07:58:39;20.50;49.20
66057;DHT22;52842;52.666;5.202;2023-02-01T08:01:10;20.50;49.80
66057;DHT22;52842;52.666;5.202;2023-02-01T08:03:45;20.50;49.10
66057;DHT22;52842;52.666;5.202;2023-02-01T08:06:12;20.50;49.10
66057;DHT22;52842;52.666;5.202;2023-02-01T08:08:39;20.50;49.20
66057;DHT22;52842;52.666;5.202;2023-02-01T08:11:06;20.50;49.30
66057;DHT22;52842;52.666;5.202;2023-02-01T08:13:33;20.50;49.40
66057;DHT22;52842;52.666;5.202;2023-02-01T08:16:01;20.50;49.40
66057;DHT22;52842;52.666;5.202;2023-02-01T08:18:28;20.50;49.40
66057;DHT22;52842;52.666;5.202;2023-02-01T08:20:55;20.50;49.40
66057;DHT22;52842;52.666;5.202;2023-02-01T08:23:22;20.50;49.30
66057;DHT22;52842;52.666;5.202;2023-02-01T08:25:49;20.50;49.30
66057;DHT22;52842;52.666;5.202;2023-02-01T08:28:16;20.50;49.30
66057;DHT22;52842;52.666;5.202;2023-02-01T08:30:42;20.50;49.30
66057;DHT22;52842;52.666;5.202;2023-02-01T08:33:10;20.50;49.20
66057;DHT22;52842;52.666;5.202;2023-02-01T08:35:38;20.50;49.20
66057;DHT22;52842;52.666;5.202;2023-02-01T08:38:04;20.50;49.30
66057;DHT22;52842;52.666;5.202;2023-02-01T08:40:32;20.50;49.10
66057;DHT22;52842;52.666;5.202;2023-02-01T08:42:59;20.50;49.10
66057;DHT22;52842;52.666;5.202;2023-02-01T08:45:26;20.50;49.20
66057;DHT22;52842;52.666;5.202;2023-02-01T08:47:54;20.50;49.10
66057;DHT22;52842;52.666;5.202;2023-02-01T08:50:23;20.50;49.10
66057;DHT22;52842;52.666;5.202;2023-02-01T08:52:50;20.50;49.20
66057;DHT22;52842;52.666;5.202;2023-02-01T08:55:17;20.50;49.20
66057;DHT22;52842;52.666;5.202;2023-02-01T08:57:43;20.50;49.10
66057;DHT22;52842;52.666;5.202;2023-02-01T09:00:11;20.50;49.10
66057;DHT22;52842;52.666;5.202;2023-02-01T09:02:38;20.60;49.00
66057;DHT22;52842;52.666;5.202;2023-02-01T09:05:05;20.60;48.90
66057;DHT22;52842;52.666;5.202;2023-02-01T09:07:34;20.60;48.80
66057;DHT22;52842;52.666;5.202;2023-02-01T09:10:00;20.60;49.50
66057;DHT22;52842;52.666;5.202;2023-02-01T09:12:27;20.60;48.90
66057;DHT22;52842;52.666;5.202;2023-02-01T09:14:54;20.60;48.90
66057;DHT22;52842;52.666;5.202;2023-02-01T09:17:21;20.60;49.00
66057;DHT22;52842;52.666;5.202;2023-02-01T09:19:48;20.50;48.90
66057;DHT22;52842;52.666;5.202;2023-02-01T09:22:14;20.50;49.00
66057;DHT22;52842;52.666;5.202;2023-02-01T09:24:42;20.60;49.00
66057;DHT22;52842;52.666;5.202;2023-02-01T09:27:09;20.60;49.00
66057;DHT22;52842;52.666;5.202;2023-02-01T09:29:36;20.60;48.90
66057;DHT22;52842;52.666;5.202;2023-02-01T09:32:03;20.60;48.80
66057;DHT22;52842;52.666;5.202;2023-02-01T09:34:30;20.60;48.80
66057;DHT22;52842;52.666;5.202;2023-02-01T09:36:57;20.60;49.00
66057;DHT22;52842;52.666;5.202;2023-02-01T09:39:23;20.50;48.90
66057;DHT22;52842;52.666;5.202;2023-02-01T09:41:54;20.50;49.00
66057;DHT22;52842;52.666;5.202;2023-02-01T09:44:27;20.50;48.90
66057;DHT22;52842;52.666;5.202;2023-02-01T09:46:57;20.60;48.90
66057;DHT22;52842;52.666;5.202;2023-02-01T09:49:27;20.60;48.80
66057;DHT22;52842;52.666;5.202;2023-02-01T09:51:54;20.60;48.80
66057;DHT22;52842;52.666;5.202;2023-02-01T09:54:22;20.60;48.80
66057;DHT22;52842;52.666;5.202;2023-02-01T09:56:53;20.60;48.80
66057;DHT22;52842;52.666;5.202;2023-02-01T09:59:24;20.60;48.80
66057;DHT22;52842;52.666;5.202;2023-02-01T10:01:52;20.60;48.80
66057;DHT22;52842;52.666;5.202;2023-02-01T10:04:19;20.60;48.80
66057;DHT22;52842;52.666;5.202;2023-02-01T10:06:49;20.60;48.90
66057;DHT22;52842;52.666;5.202;2023-02-01T10:09:22;20.60;48.90
66057;DHT22;52842;52.666;5.202;2023-02-01T10:12:10;20.60;48.90
66057;DHT22;52842;52.666;5.202;2023-02-01T10:14:52;20.60;48.90
66057;DHT22;52842;52.666;5.202;2023-02-01T10:17:25;20.60;48.80
66057;DHT22;52842;52.666;5.202;2023-02-01T10:19:56;20.60;48.80
66057;DHT22;52842;52.666;5.202;2023-02-01T10:22:29;20.60;48.80
66057;DHT22;52842;52.666;5.202;2023-02-01T10:24:58;20.60;48.80
66057;DHT22;52842;52.666;5.202;2023-02-01T10:27:33;20.50;48.80
66057;DHT22;52842;52.666;5.202;2023-02-01T10:30:04;20.40;48.90
66057;DHT22;52842;52.666;5.202;2023-02-01T10:32:32;20.10;49.10
66057;DHT22;52842;52.666;5.202;2023-02-01T10:35:00;19.90;49.50
66057;DHT22;52842;52.666;5.202;2023-02-01T10:37:28;19.70;49.90
66057;DHT22;52842;52.666;5.202;2023-02-01T10:39:55;19.60;50.20
66057;DHT22;52842;52.666;5.202;2023-02-01T10:42:25;19.50;50.60
66057;DHT22;52842;52.666;5.202;2023-02-01T10:44:53;19.40;50.80
66057;DHT22;52842;52.666;5.202;2023-02-01T10:47:20;19.30;51.00
66057;DHT22;52842;52.666;5.202;2023-02-01T10:49:49;19.20;51.20
66057;DHT22;52842;52.666;5.202;2023-02-01T10:52:17;19.10;51.40
66057;DHT22;52842;52.666;5.202;2023-02-01T10:54:45;19.00;51.50
66057;DHT22;52842;52.666;5.202;2023-02-01T10:57:19;19.00;51.60
66057;DHT22;52842;52.666;5.202;2023-02-01T10:59:46;18.90;51.60
66057;DHT22;52842;52.666;5.202;2023-02-01T11:02:19;18.80;51.60
66057;DHT22;52842;52.666;5.202;2023-02-01T11:04:46;18.80;51.80
66057;DHT22;52842;52.666;5.202;2023-02-01T11:07:16;18.70;51.80
66057;DHT22;52842;52.666;5.202;2023-02-01T11:09:48;18.70;51.90
66057;DHT22;52842;52.666;5.202;2023-02-01T11:12:23;18.60;52.00
66057;DHT22;52842;52.666;5.202;2023-02-01T11:14:51;18.60;52.10
66057;DHT22;52842;52.666;5.202;2023-02-01T11:17:27;18.50;52.20
66057;DHT22;52842;52.666;5.202;2023-02-01T11:19:58;18.50;52.40
66057;DHT22;52842;52.666;5.202;2023-02-01T11:22:25;18.40;52.40
66057;DHT22;52842;52.666;5.202;2023-02-01T11:24:52;18.50;52.30
66057;DHT22;52842;52.666;5.202;2023-02-01T11:27:20;18.40;52.30
66057;DHT22;52842;52.666;5.202;2023-02-01T11:29:49;18.40;52.50
66057;DHT22;52842;52.666;5.202;2023-02-01T11:32:17;18.30;52.60
66057;DHT22;52842;52.666;5.202;2023-02-01T11:34:46;18.30;52.70
66057;DHT22;52842;52.666;5.202;2023-02-01T11:37:15;18.20;53.10
66057;DHT22;52842;52.666;5.202;2023-02-01T11:39:43;18.20;53.00
66057;DHT22;52842;52.666;5.202;2023-02-01T11:42:19;18.10;53.20
66057;DHT22;52842;52.666;5.202;2023-02-01T11:44:46;18.10;53.20
66057;DHT22;52842;52.666;5.202;2023-02-01T11:47:21;18.00;53.30
66057;DHT22;52842;52.666;5.202;2023-02-01T11:49:49;18.00;53.40
66057;DHT22;52842;52.666;5.202;2023-02-01T11:52:18;18.00;53.50
66057;DHT22;52842;52.666;5.202;2023-02-01T11:54:57;18.00;53.20
66057;DHT22;52842;52.666;5.202;2023-02-01T11:57:31;18.20;52.90
66057;DHT22;52842;52.666;5.202;2023-02-01T12:00:08;18.40;52.30
66057;DHT22;52842;52.666;5.202;2023-02-01T12:02:48;18.70;51.70
66057;DHT22;52842;52.666;5.202;2023-02-01T12:05:27;19.00;51.20
66057;DHT22;52842;52.666;5.202;2023-02-01T12:10:48;19.10;50.40
66057;DHT22;52842;52.666;5.202;2023-02-01T12:13:25;19.00;50.70
66057;DHT22;52842;52.666;5.202;2023-02-01T12:15:59;18.80;51.00
66057;DHT22;52842;52.666;5.202;2023-02-01T12:18:38;18.70;51.30
66057;DHT22;52842;52.666;5.202;2023-02-01T12:23:58;18.40;51.80
66057;DHT22;52842;52.666;5.202;2023-02-01T12:26:34;18.30;52.10
66057;DHT22;52842;52.666;5.202;2023-02-01T12:29:09;18.20;52.20
66057;DHT22;52842;52.666;5.202;2023-02-01T12:31:41;18.10;52.40
66057;DHT22;52842;52.666;5.202;2023-02-01T12:34:15;18.00;52.70
66057;DHT22;52842;52.666;5.202;2023-02-01T12:36:46;17.90;53.00
66057;DHT22;52842;52.666;5.202;2023-02-01T12:39:17;17.90;53.30
66057;DHT22;52842;52.666;5.202;2023-02-01T12:41:50;17.80;53.50
66057;DHT22;52842;52.666;5.202;2023-02-01T12:44:23;17.80;53.70
66057;DHT22;52842;52.666;5.202;2023-02-01T12:46:52;17.80;53.80
66057;DHT22;52842;52.666;5.202;2023-02-01T12:49:19;17.70;54.10
66057;DHT22;52842;52.666;5.202;2023-02-01T12:51:52;17.70;54.20
66057;DHT22;52842;52.666;5.202;2023-02-01T12:54:22;17.60;54.30
66057;DHT22;52842;52.666;5.202;2023-02-01T12:56:53;17.60;54.40
66057;DHT22;52842;52.666;5.202;2023-02-01T12:59:24;17.60;54.50
66057;DHT22;52842;52.666;5.202;2023-02-01T13:01:53;17.60;54.70
66057;DHT22;52842;52.666;5.202;2023-02-01T13:04:25;17.50;54.70
66057;DHT22;52842;52.666;5.202;2023-02-01T13:06:53;17.50;54.80
66057;DHT22;52842;52.666;5.202;2023-02-01T13:09:26;17.50;55.00
66057;DHT22;52842;52.666;5.202;2023-02-01T13:11:53;17.50;55.10
66057;DHT22;52842;52.666;5.202;2023-02-01T13:14:24;17.50;55.20
66057;DHT22;52842;52.666;5.202;2023-02-01T13:16:52;17.40;55.30
66057;DHT22;52842;52.666;5.202;2023-02-01T13:19:20;17.50;55.00
66057;DHT22;52842;52.666;5.202;2023-02-01T13:21:49;17.60;55.00
66057;DHT22;52842;52.666;5.202;2023-02-01T13:24:24;17.80;54.60
66057;DHT22;52842;52.666;5.202;2023-02-01T13:26:53;18.00;54.30
66057;DHT22;52842;52.666;5.202;2023-02-01T13:29:20;18.30;53.70
66057;DHT22;52842;52.666;5.202;2023-02-01T13:32:00;18.60;53.00
66057;DHT22;52842;52.666;5.202;2023-02-01T13:34:34;19.00;52.40
66057;DHT22;52842;52.666;5.202;2023-02-01T13:37:08;19.30;51.70
66057;DHT22;52842;52.666;5.202;2023-02-01T13:39:50;19.70;50.90
66057;DHT22;52842;52.666;5.202;2023-02-01T13:42:21;20.00;50.30
66057;DHT22;52842;52.666;5.202;2023-02-01T13:44:49;20.20;49.70
66057;DHT22;52842;52.666;5.202;2023-02-01T13:47:20;20.40;49.10
66057;DHT22;52842;52.666;5.202;2023-02-01T13:49:48;20.60;48.80
66057;DHT22;52842;52.666;5.202;2023-02-01T13:52:26;20.80;48.30
66057;DHT22;52842;52.666;5.202;2023-02-01T13:57:46;21.10;47.90
66057;DHT22;52842;52.666;5.202;2023-02-01T14:00:23;21.10;47.60
66057;DHT22;52842;52.666;5.202;2023-02-01T14:08:37;20.90;48.10
66057;DHT22;52842;52.666;5.202;2023-02-01T14:11:06;20.70;48.50
66057;DHT22;52842;52.666;5.202;2023-02-01T14:13:34;20.50;48.80
66057;DHT22;52842;52.666;5.202;2023-02-01T14:16:11;20.50;49.20
66057;DHT22;52842;52.666;5.202;2023-02-01T14:21:21;20.30;49.70
66057;DHT22;52842;52.666;5.202;2023-02-01T14:23:54;20.20;50.00
66057;DHT22;52842;52.666;5.202;2023-02-01T14:26:23;20.20;50.10
66057;DHT22;52842;52.666;5.202;2023-02-01T14:28:54;20.20;50.20
66057;DHT22;52842;52.666;5.202;2023-02-01T14:34:14;20.10;50.40
66057;DHT22;52842;52.666;5.202;2023-02-01T14:36:44;20.10;50.40
66057;DHT22;52842;52.666;5.202;2023-02-01T14:39:18;20.10;50.50
66057;DHT22;52842;52.666;5.202;2023-02-01T14:41:46;20.10;50.40
66057;DHT22;52842;52.666;5.202;2023-02-01T14:44:22;20.20;50.50
66057;DHT22;52842;52.666;5.202;2023-02-01T14:47:05;20.10;50.40
66057;DHT22;52842;52.666;5.202;2023-02-01T14:49:32;20.10;50.30
66057;DHT22;52842;52.666;5.202;2023-02-01T14:51:59;20.00;50.20
66057;DHT22;52842;52.666;5.202;2023-02-01T14:54:28;20.00;50.30
66057;DHT22;52842;52.666;5.202;2023-02-01T14:56:55;19.90;50.30
66057;DHT22;52842;52.666;5.202;2023-02-01T14:59:23;19.90;50.50
66057;DHT22;52842;52.666;5.202;2023-02-01T15:01:52;19.90;50.40
66057;DHT22;52842;52.666;5.202;2023-02-01T15:04:20;19.90;50.30
66057;DHT22;52842;52.666;5.202;2023-02-01T15:06:48;20.00;50.40
66057;DHT22;52842;52.666;5.202;2023-02-01T15:09:17;20.00;50.40
66057;DHT22;52842;52.666;5.202;2023-02-01T15:11:54;19.90;50.40
66057;DHT22;52842;52.666;5.202;2023-02-01T15:14:21;19.90;50.50
66057;DHT22;52842;52.666;5.202;2023-02-01T15:16:49;19.90;50.50
66057;DHT22;52842;52.666;5.202;2023-02-01T15:19:19;19.90;50.40
66057;DHT22;52842;52.666;5.202;2023-02-01T15:21:47;20.00;50.50
66057;DHT22;52842;52.666;5.202;2023-02-01T15:24:14;20.00;50.50
66057;DHT22;52842;52.666;5.202;2023-02-01T15:26:44;20.00;50.50
66057;DHT22;52842;52.666;5.202;2023-02-01T15:29:11;19.90;50.40
66057;DHT22;52842;52.666;5.202;2023-02-01T15:31:39;19.90;50.40
66057;DHT22;52842;52.666;5.202;2023-02-01T15:34:08;20.00;50.50
66057;DHT22;52842;52.666;5.202;2023-02-01T15:36:35;20.00;50.50
66057;DHT22;52842;52.666;5.202;2023-02-01T15:39:16;20.00;50.40
66057;DHT22;52842;52.666;5.202;2023-02-01T15:41:49;20.00;50.30
66057;DHT22;52842;52.666;5.202;2023-02-01T15:44:20;20.00;50.20
66057;DHT22;52842;52.666;5.202;2023-02-01T15:46:49;20.00;50.40
66057;DHT22;52842;52.666;5.202;2023-02-01T15:49:19;20.00;50.30
66057;DHT22;52842;52.666;5.202;2023-02-01T15:51:47;20.00;50.30
66057;DHT22;52842;52.666;5.202;2023-02-01T15:54:15;20.00;50.20
66057;DHT22;52842;52.666;5.202;2023-02-01T15:56:48;20.00;50.20
66057;DHT22;52842;52.666;5.202;2023-02-01T15:59:18;20.00;50.20
66057;DHT22;52842;52.666;5.202;2023-02-01T16:01:46;20.00;50.20
66057;DHT22;52842;52.666;5.202;2023-02-01T16:04:16;20.00;50.20
66057;DHT22;52842;52.666;5.202;2023-02-01T16:06:48;20.00;50.20
66057;DHT22;52842;52.666;5.202;2023-02-01T16:09:16;20.00;50.10
66057;DHT22;52842;52.666;5.202;2023-02-01T16:11:52;20.10;50.00